createdAt,value
2023-05-08T00:02:05.342Z,89.70
2023-05-08T00:04:34.935Z,89.50
2023-05-08T00:07:03.201Z,89.50
2023-05-08T00:09:31.383Z,89.60
2023-05-08T00:11:59.578Z,89.40
2023-05-08T00:14:27.810Z,89.30
2023-05-08T00:16:56.047Z,89.50
2023-05-08T00:19:24.614Z,89.40
2023-05-08T00:21:54.211Z,88.90
2023-05-08T00:24:22.711Z,89.00
2023-05-08T00:26:50.909Z,89.20
2023-05-08T00:29:19.139Z,89.50
2023-05-08T00:31:47.545Z,89.40
2023-05-08T00:34:15.883Z,89.20
2023-05-08T00:36:44.007Z,89.10
2023-05-08T00:39:13.844Z,89.40
2023-05-08T00:41:42.610Z,89.50
2023-05-08T00:44:10.807Z,89.40
2023-05-08T00:46:39.322Z,89.40
2023-05-08T00:49:07.884Z,89.40
2023-05-08T00:51:36.216Z,89.70
2023-05-08T00:54:05.085Z,89.60
2023-05-08T00:56:37.373Z,89.80
2023-05-08T00:59:09.419Z,89.80
2023-05-08T01:01:38.710Z,89.40
2023-05-08T01:04:07.580Z,89.00
2023-05-08T01:06:36.896Z,89.40
2023-05-08T01:09:05.409Z,89.40
2023-05-08T01:11:40.733Z,89.40
2023-05-08T01:14:18.561Z,89.20
2023-05-08T01:16:57.740Z,88.80
2023-05-08T01:19:56.547Z,88.30
2023-05-08T01:22:45.447Z,88.50
2023-05-08T01:25:44.639Z,88.90
2023-05-08T01:28:44.895Z,89.40
2023-05-08T01:31:26.155Z,89.30
2023-05-08T01:34:06.609Z,89.20
2023-05-08T01:36:42.618Z,89.70
2023-05-08T01:39:21.538Z,89.80
2023-05-08T01:41:58.246Z,90.00
2023-05-08T01:44:33.825Z,90.00
2023-05-08T01:47:08.955Z,90.00
2023-05-08T01:49:43.345Z,90.00
2023-05-08T01:52:19.705Z,89.50
2023-05-08T01:54:57.544Z,89.50
2023-05-08T01:57:30.322Z,89.20
2023-05-08T02:00:02.477Z,89.30
2023-05-08T02:02:32.520Z,89.20
2023-05-08T02:05:05.933Z,89.30
2023-05-08T02:07:38.005Z,89.30
2023-05-08T02:10:08.400Z,89.10
2023-05-08T02:12:39.036Z,89.00
2023-05-08T02:15:10.717Z,88.90
2023-05-08T02:17:41.007Z,88.90
2023-05-08T02:20:15.077Z,89.20
2023-05-08T02:22:46.467Z,89.50
2023-05-08T02:25:16.463Z,89.40
2023-05-08T02:27:47.021Z,89.50
2023-05-08T02:30:17.736Z,89.30
2023-05-08T02:32:47.885Z,88.40
2023-05-08T02:35:19.742Z,88.60
2023-05-08T02:37:53.053Z,89.10
2023-05-08T02:40:23.947Z,89.40
2023-05-08T02:42:52.275Z,89.60
2023-05-08T02:45:21.253Z,89.70
2023-05-08T02:47:55.593Z,89.40
2023-05-08T02:50:34.297Z,89.50
2023-05-08T02:53:06.118Z,89.60
2023-05-08T02:55:41.158Z,89.10
2023-05-08T02:58:18.767Z,87.90
2023-05-08T03:00:54.107Z,88.50
2023-05-08T03:03:28.042Z,88.70
2023-05-08T03:06:01.253Z,88.70
2023-05-08T03:08:32.618Z,89.20
2023-05-08T03:11:07.087Z,89.00
2023-05-08T03:13:40.236Z,89.40
2023-05-08T03:16:17.079Z,89.50
2023-05-08T03:18:52.659Z,89.70
2023-05-08T03:21:24.115Z,89.90
2023-05-08T03:23:54.449Z,89.80
2023-05-08T03:26:22.694Z,89.80
2023-05-08T03:28:52.502Z,88.90
2023-05-08T03:31:22.087Z,89.00
2023-05-08T03:33:55.283Z,89.10
2023-05-08T03:36:27.222Z,89.30
2023-05-08T03:38:55.591Z,89.60
2023-05-08T03:41:24.036Z,89.80
2023-05-08T03:43:52.859Z,89.80
2023-05-08T03:46:22.268Z,91.20
2023-05-08T03:48:51.727Z,90.60
2023-05-08T03:51:20.755Z,90.60
2023-05-08T03:53:50.356Z,91.30
2023-05-08T03:56:18.570Z,91.20
2023-05-08T03:58:53.032Z,91.10
2023-05-08T04:01:27.246Z,91.00
2023-05-08T04:04:04.354Z,91.20
2023-05-08T04:06:49.539Z,91.30
2023-05-08T04:09:27.697Z,91.50
2023-05-08T04:12:06.790Z,91.50
2023-05-08T04:14:44.326Z,91.60
2023-05-08T04:17:17.193Z,91.80
2023-05-08T04:19:48.383Z,91.80
2023-05-08T04:22:18.093Z,91.90
2023-05-08T04:24:49.339Z,92.00
2023-05-08T04:27:18.164Z,92.00
2023-05-08T04:29:46.544Z,92.10
2023-05-08T04:32:15.563Z,92.20
2023-05-08T04:34:44.048Z,92.20
2023-05-08T04:37:27.288Z,92.20
2023-05-08T04:39:56.948Z,92.30
2023-05-08T04:42:26.979Z,92.30
2023-05-08T04:44:55.893Z,92.40
2023-05-08T04:47:24.734Z,92.40
2023-05-08T04:49:53.054Z,92.50
2023-05-08T04:52:21.435Z,92.50
2023-05-08T04:54:49.665Z,92.50
2023-05-08T04:57:19.211Z,92.50
2023-05-08T04:59:47.558Z,92.50
2023-05-08T05:02:15.829Z,92.60
2023-05-08T05:04:44.048Z,92.50
2023-05-08T05:07:12.298Z,92.40
2023-05-08T05:09:40.515Z,92.50
2023-05-08T05:12:08.813Z,92.40
2023-05-08T05:14:38.441Z,92.40
2023-05-08T05:17:06.642Z,92.40
2023-05-08T05:19:34.922Z,92.40
2023-05-08T05:22:03.193Z,92.30
2023-05-08T05:24:31.502Z,92.30
2023-05-08T05:27:00.450Z,92.40
2023-05-08T05:29:28.745Z,92.50
2023-05-08T05:31:58.361Z,92.30
2023-05-08T05:34:26.653Z,92.30
2023-05-08T05:36:54.901Z,92.30
2023-05-08T05:39:23.357Z,92.30
2023-05-08T05:41:51.696Z,92.30
2023-05-08T05:44:20.101Z,92.30
2023-05-08T05:46:48.539Z,92.40
2023-05-08T05:49:18.162Z,92.50
2023-05-08T05:51:46.399Z,92.30
2023-05-08T05:54:15.122Z,92.40
2023-05-08T05:56:43.498Z,92.40
2023-05-08T05:59:11.650Z,92.30
2023-05-08T06:01:39.894Z,92.40
2023-05-08T06:04:08.219Z,92.30
2023-05-08T06:06:37.790Z,92.30
2023-05-08T06:09:07.088Z,92.40
2023-05-08T06:11:35.620Z,92.30
2023-05-08T06:14:03.838Z,92.40
2023-05-08T06:16:32.179Z,92.30
2023-05-08T06:19:00.441Z,92.40
2023-05-08T06:21:29.524Z,92.40
2023-05-08T06:23:59.078Z,92.50
2023-05-08T06:26:27.348Z,92.50
2023-05-08T06:28:55.612Z,92.50
2023-05-08T06:31:23.918Z,92.50
2023-05-08T06:33:52.188Z,92.20
2023-05-08T06:36:20.776Z,92.30
2023-05-08T06:38:48.978Z,92.20
2023-05-08T06:41:18.531Z,92.20
2023-05-08T06:43:46.852Z,92.10
2023-05-08T06:46:15.116Z,92.00
2023-05-08T06:48:43.310Z,92.00
2023-05-08T06:51:11.672Z,92.00
2023-05-08T06:53:39.869Z,91.90
2023-05-08T06:56:09.014Z,91.90
2023-05-08T06:58:38.685Z,91.80
2023-05-08T07:01:07.109Z,91.90
2023-05-08T07:03:35.381Z,91.90
2023-05-08T07:06:03.696Z,91.80
2023-05-08T07:08:32.382Z,91.80
2023-05-08T07:11:00.627Z,91.90
2023-05-08T07:13:29.021Z,91.80
2023-05-08T07:15:58.729Z,91.90
2023-05-08T07:18:27.031Z,91.80
2023-05-08T07:20:55.214Z,91.90
2023-05-08T07:23:23.469Z,91.90
2023-05-08T07:25:51.631Z,91.80
2023-05-08T07:28:19.907Z,91.80
2023-05-08T07:30:48.108Z,91.80
2023-05-08T07:33:17.959Z,91.60
2023-05-08T07:35:46.756Z,91.50
2023-05-08T07:38:14.976Z,91.00
2023-05-08T07:40:43.167Z,91.00
2023-05-08T07:43:11.546Z,91.20
2023-05-08T07:45:39.737Z,91.10
2023-05-08T07:48:08.981Z,90.80
2023-05-08T07:50:38.536Z,90.50
2023-05-08T07:53:06.828Z,90.30
2023-05-08T07:55:35.102Z,90.20
2023-05-08T07:58:03.312Z,90.40
2023-05-08T08:00:31.617Z,89.90
2023-05-08T08:02:59.964Z,89.90
2023-05-08T08:05:28.546Z,90.10
2023-05-08T08:07:58.155Z,90.10
2023-05-08T08:10:27.912Z,90.00
2023-05-08T08:12:56.193Z,89.70
2023-05-08T08:15:24.442Z,89.40
2023-05-08T08:17:52.692Z,89.10
2023-05-08T08:20:21.312Z,88.70
2023-05-08T08:22:49.548Z,88.70
2023-05-08T08:25:19.137Z,88.70
2023-05-08T08:27:47.567Z,89.10
2023-05-08T08:30:18.311Z,89.20
2023-05-08T08:32:47.508Z,88.70
2023-05-08T08:35:16.678Z,88.70
2023-05-08T08:37:45.674Z,88.30
2023-05-08T08:40:14.229Z,87.50
2023-05-08T08:42:43.816Z,87.20
2023-05-08T08:45:13.027Z,87.40
2023-05-08T08:47:44.294Z,87.40
2023-05-08T08:50:14.729Z,87.50
2023-05-08T08:52:49.607Z,87.90
2023-05-08T08:55:19.355Z,86.70
2023-05-08T08:57:58.094Z,87.10
2023-05-08T09:00:32.091Z,87.50
2023-05-08T09:03:00.989Z,86.60
2023-05-08T09:05:30.616Z,86.50
2023-05-08T09:07:59.624Z,87.30
2023-05-08T09:10:27.885Z,87.60
2023-05-08T09:12:57.656Z,87.50
2023-05-08T09:15:25.954Z,86.30
2023-05-08T09:17:54.243Z,85.10
2023-05-08T09:20:23.673Z,84.90
2023-05-08T09:22:54.330Z,85.00
2023-05-08T09:25:22.903Z,85.50
2023-05-08T09:27:51.086Z,85.70
2023-05-08T09:30:20.702Z,85.80
2023-05-08T09:32:49.994Z,85.90
2023-05-08T09:35:18.326Z,86.10
2023-05-08T09:37:47.504Z,85.00
2023-05-08T09:40:18.377Z,85.10
2023-05-08T09:42:46.968Z,84.60
2023-05-08T09:45:31.045Z,84.40
2023-05-08T09:47:59.870Z,83.50
2023-05-08T09:50:28.272Z,83.20
2023-05-08T09:52:56.744Z,84.20
2023-05-08T09:55:24.953Z,83.90
2023-05-08T09:57:56.484Z,83.00
2023-05-08T10:00:26.144Z,83.60
2023-05-08T10:03:00.992Z,83.10
2023-05-08T10:05:31.810Z,82.30
2023-05-08T10:08:18.446Z,83.00
2023-05-08T10:10:47.261Z,83.20
2023-05-08T10:13:15.949Z,82.40
2023-05-08T10:15:45.841Z,82.50
2023-05-08T10:18:18.963Z,80.80
2023-05-08T10:20:49.517Z,81.10
2023-05-08T10:23:19.116Z,82.10
2023-05-08T10:25:49.681Z,80.10
2023-05-08T10:28:25.425Z,80.80
2023-05-08T10:30:55.588Z,81.40
2023-05-08T10:33:31.365Z,82.00
2023-05-08T10:36:00.093Z,83.00
2023-05-08T10:38:28.738Z,81.30
2023-05-08T10:40:58.548Z,81.30
2023-05-08T10:43:27.111Z,81.60
2023-05-08T10:45:57.663Z,81.40
2023-05-08T10:48:33.704Z,80.80
2023-05-08T10:51:13.946Z,80.90
2023-05-08T10:53:56.699Z,82.00
2023-05-08T10:56:28.041Z,81.80
2023-05-08T10:59:00.201Z,81.30
2023-05-08T11:01:28.542Z,80.60
2023-05-08T11:03:58.386Z,81.80
2023-05-08T11:06:46.611Z,80.90
2023-05-08T11:09:23.362Z,82.00
2023-05-08T11:12:09.660Z,82.20
2023-05-08T11:14:43.725Z,82.40
2023-05-08T11:17:12.330Z,80.60
2023-05-08T11:20:00.707Z,81.40
2023-05-08T11:22:32.687Z,81.20
2023-05-08T11:25:04.295Z,81.70
2023-05-08T11:27:40.901Z,81.40
2023-05-08T11:30:28.349Z,81.20
2023-05-08T11:33:33.297Z,80.90
2023-05-08T11:36:15.002Z,81.20
2023-05-08T11:38:44.287Z,82.20
2023-05-08T11:41:21.934Z,82.00
2023-05-08T11:44:22.008Z,82.60
2023-05-08T11:46:54.921Z,83.60
2023-05-08T11:49:29.094Z,83.70
2023-05-08T11:52:01.215Z,83.90
2023-05-08T11:54:32.101Z,84.50
2023-05-08T11:57:01.746Z,84.20
2023-05-08T11:59:30.119Z,84.30
2023-05-08T12:02:07.932Z,84.70
2023-05-08T12:04:46.531Z,85.10
2023-05-08T12:07:17.095Z,85.30
2023-05-08T12:09:47.428Z,85.50
2023-05-08T12:12:15.593Z,85.60
2023-05-08T12:14:43.816Z,85.90
2023-05-08T12:17:12.147Z,86.50
2023-05-08T12:19:40.626Z,85.70
2023-05-08T12:22:10.782Z,86.00
2023-05-08T12:24:40.603Z,86.40
2023-05-08T12:27:09.219Z,86.30
2023-05-08T12:29:38.702Z,86.60
2023-05-08T12:32:07.251Z,85.60
2023-05-08T12:34:36.243Z,84.90
2023-05-08T12:37:05.471Z,84.70
2023-05-08T12:39:38.962Z,84.70
2023-05-08T12:42:07.281Z,84.50
2023-05-08T12:44:35.522Z,83.90
2023-05-08T12:47:06.103Z,84.20
2023-05-08T12:49:34.658Z,84.20
2023-05-08T12:52:05.287Z,84.30
2023-05-08T12:54:35.570Z,84.80
2023-05-08T12:57:11.111Z,84.50
2023-05-08T12:59:39.431Z,84.50
2023-05-08T13:02:14.899Z,84.40
2023-05-08T13:04:43.786Z,84.30
2023-05-08T13:07:15.324Z,82.80
2023-05-08T13:09:58.572Z,83.40
2023-05-08T13:12:28.195Z,83.50
2023-05-08T13:14:56.553Z,83.70
2023-05-08T13:17:24.864Z,83.10
2023-05-08T13:19:53.089Z,83.80
2023-05-08T13:22:23.222Z,83.60
2023-05-08T13:24:51.431Z,83.10
2023-05-08T13:27:20.286Z,82.70
2023-05-08T13:29:49.843Z,82.80
2023-05-08T13:32:18.329Z,82.30
2023-05-08T13:34:50.156Z,81.80
2023-05-08T13:37:19.979Z,82.40
2023-05-08T13:39:48.248Z,82.40
2023-05-08T13:42:16.502Z,82.20
2023-05-08T13:44:44.768Z,80.30
2023-05-08T13:47:14.391Z,80.20
2023-05-08T13:49:44.170Z,80.60
2023-05-08T13:52:12.422Z,79.00
2023-05-08T13:54:40.786Z,77.40
2023-05-08T13:57:09.192Z,76.70
2023-05-08T13:59:37.514Z,76.20
2023-05-08T14:02:06.012Z,76.70
2023-05-08T14:04:35.694Z,77.30
2023-05-08T14:07:03.923Z,78.00
2023-05-08T14:09:32.200Z,79.70
2023-05-08T14:12:00.436Z,78.40
2023-05-08T14:14:28.622Z,79.80
2023-05-08T14:16:56.820Z,80.70
2023-05-08T14:19:25.013Z,80.40
2023-05-08T14:21:54.605Z,80.30
2023-05-08T14:24:22.908Z,78.80
2023-05-08T14:26:51.166Z,78.50
2023-05-08T14:29:19.888Z,79.40
2023-05-08T14:31:48.172Z,78.50
2023-05-08T14:34:16.406Z,76.70
2023-05-08T14:36:44.650Z,77.20
2023-05-08T14:39:14.370Z,78.00
2023-05-08T14:41:51.215Z,78.10
2023-05-08T14:44:23.586Z,78.10
2023-05-08T14:46:51.790Z,79.40
2023-05-08T14:49:32.883Z,79.20
2023-05-08T14:52:06.552Z,78.90
2023-05-08T14:54:36.286Z,80.00
2023-05-08T14:57:04.646Z,79.50
2023-05-08T14:59:32.833Z,79.00
2023-05-08T15:02:01.218Z,78.60
2023-05-08T15:04:29.572Z,79.30
2023-05-08T15:06:57.792Z,78.50
2023-05-08T15:09:26.000Z,78.50
2023-05-08T15:11:55.713Z,76.50
2023-05-08T15:14:24.458Z,76.30
2023-05-08T15:16:52.675Z,74.50
2023-05-08T15:19:20.939Z,75.60
2023-05-08T15:21:49.171Z,74.90
2023-05-08T15:24:17.416Z,72.90
2023-05-08T15:26:45.650Z,71.60
2023-05-08T15:29:15.186Z,72.00
2023-05-08T15:31:43.445Z,73.50
2023-05-08T15:34:14.001Z,73.10
2023-05-08T15:36:44.532Z,74.00
2023-05-08T15:39:12.792Z,73.20
2023-05-08T15:41:41.369Z,73.50
2023-05-08T15:44:09.648Z,72.70
2023-05-08T15:46:39.212Z,71.00
2023-05-08T15:49:07.386Z,72.40
2023-05-08T15:51:35.618Z,71.70
2023-05-08T15:54:03.979Z,72.50
2023-05-08T15:56:32.710Z,73.40
2023-05-08T15:59:00.971Z,72.60
2023-05-08T16:01:29.163Z,72.80
2023-05-08T16:03:58.778Z,73.30
2023-05-08T16:06:27.119Z,73.40
2023-05-08T16:08:55.318Z,74.60
2023-05-08T16:11:23.622Z,75.30
2023-05-08T16:13:51.891Z,74.50
2023-05-08T16:16:20.090Z,75.60
2023-05-08T16:18:48.411Z,75.80
2023-05-08T16:21:18.064Z,75.40
2023-05-08T16:23:46.286Z,76.10
2023-05-08T16:26:16.493Z,75.90
2023-05-08T16:28:44.773Z,76.40
2023-05-08T16:31:12.999Z,76.60
2023-05-08T16:33:41.295Z,76.60
2023-05-08T16:36:10.214Z,77.10
2023-05-08T16:38:42.432Z,76.80
2023-05-08T16:41:12.357Z,77.40
2023-05-08T16:43:40.641Z,77.70
2023-05-08T16:46:09.087Z,78.40
2023-05-08T16:48:37.366Z,77.90
2023-05-08T16:51:05.734Z,78.70
2023-05-08T16:53:33.954Z,79.20
2023-05-08T16:56:03.628Z,78.50
2023-05-08T16:58:31.901Z,78.50
2023-05-08T17:01:00.187Z,78.10
2023-05-08T17:03:28.511Z,77.70
2023-05-08T17:05:56.883Z,78.00
2023-05-08T17:08:25.090Z,78.60
2023-05-08T17:10:54.251Z,78.30
2023-05-08T17:13:23.993Z,78.20
2023-05-08T17:15:52.611Z,78.30
2023-05-08T17:18:21.186Z,78.50
2023-05-08T17:20:49.607Z,78.50
2023-05-08T17:23:17.904Z,78.70
2023-05-08T17:25:46.141Z,79.20
2023-05-08T17:28:14.367Z,79.60
2023-05-08T17:30:45.358Z,79.40
2023-05-08T17:33:14.583Z,79.30
2023-05-08T17:35:42.845Z,79.30
2023-05-08T17:38:11.045Z,79.40
2023-05-08T17:40:40.037Z,79.60
2023-05-08T17:43:08.665Z,78.80
2023-05-08T17:45:36.951Z,79.20
2023-05-08T17:48:07.139Z,78.40
2023-05-08T17:50:39.337Z,78.30
2023-05-08T17:53:07.666Z,78.60
2023-05-08T17:55:35.966Z,78.10
2023-05-08T17:58:04.202Z,77.90
2023-05-08T18:00:32.518Z,78.60
2023-05-08T18:03:01.096Z,78.30
2023-05-08T18:05:30.965Z,78.30
2023-05-08T18:07:59.415Z,78.30
2023-05-08T18:10:27.590Z,78.80
2023-05-08T18:12:55.880Z,79.10
2023-05-08T18:15:24.244Z,78.80
2023-05-08T18:17:53.566Z,78.20
2023-05-08T18:20:22.077Z,79.20
2023-05-08T18:22:51.756Z,79.50
2023-05-08T18:25:20.632Z,79.60
2023-05-08T18:27:50.064Z,80.80
2023-05-08T18:30:18.765Z,80.30
2023-05-08T18:32:47.022Z,80.20
2023-05-08T18:35:15.324Z,79.40
2023-05-08T18:37:43.578Z,79.50
2023-05-08T18:40:14.650Z,79.30
2023-05-08T18:42:43.160Z,80.10
2023-05-08T18:45:12.884Z,80.10
2023-05-08T18:47:41.191Z,80.30
2023-05-08T18:50:11.239Z,80.60
2023-05-08T18:52:40.700Z,80.40
2023-05-08T18:55:10.018Z,80.30
2023-05-08T18:57:39.615Z,80.20
2023-05-08T19:00:09.661Z,80.50
2023-05-08T19:02:37.996Z,80.70
2023-05-08T19:05:07.725Z,81.10
2023-05-08T19:07:36.323Z,81.30
2023-05-08T19:10:05.571Z,81.00
2023-05-08T19:12:33.910Z,80.90
2023-05-08T19:15:03.653Z,81.10
2023-05-08T19:17:32.049Z,81.30
2023-05-08T19:20:00.476Z,81.70
2023-05-08T19:22:28.856Z,81.70
2023-05-08T19:24:57.172Z,81.20
2023-05-08T19:27:26.176Z,81.50
2023-05-08T19:29:54.452Z,81.30
2023-05-08T19:32:24.286Z,81.20
2023-05-08T19:34:53.563Z,81.70
2023-05-08T19:37:21.804Z,81.70
2023-05-08T19:39:50.071Z,82.30
2023-05-08T19:42:18.331Z,82.60
2023-05-08T19:44:46.646Z,82.80
2023-05-08T19:47:15.017Z,82.60
2023-05-08T19:49:44.651Z,83.30
2023-05-08T19:52:13.245Z,82.80
2023-05-08T19:54:42.752Z,82.30
2023-05-08T19:57:11.281Z,81.80
2023-05-08T19:59:39.502Z,82.60
2023-05-08T20:02:08.281Z,83.10
2023-05-08T20:04:48.608Z,82.90
2023-05-08T20:07:26.378Z,83.20
2023-05-08T20:09:54.668Z,83.40
2023-05-08T20:12:22.986Z,83.40
2023-05-08T20:14:52.937Z,83.60
2023-05-08T20:17:21.375Z,83.50
2023-05-08T20:19:49.705Z,83.50
2023-05-08T20:22:18.091Z,83.90
2023-05-08T20:24:47.723Z,83.50
2023-05-08T20:27:16.029Z,83.70
2023-05-08T20:29:45.318Z,83.40
2023-05-08T20:32:16.310Z,83.60
2023-05-08T20:34:45.129Z,83.90
2023-05-08T20:37:13.750Z,84.70
2023-05-08T20:39:42.142Z,84.70
2023-05-08T20:42:12.972Z,85.20
2023-05-08T20:44:41.332Z,85.10
2023-05-08T20:47:09.693Z,85.40
2023-05-08T20:49:38.061Z,85.00
2023-05-08T20:52:06.675Z,85.50
2023-05-08T20:54:34.974Z,85.60
2023-05-08T20:57:03.196Z,85.80
2023-05-08T20:59:32.846Z,86.00
2023-05-08T21:02:01.074Z,85.90
2023-05-08T21:04:29.609Z,86.00
2023-05-08T21:06:58.782Z,86.20
2023-05-08T21:09:26.995Z,85.90
2023-05-08T21:11:55.265Z,85.90
2023-05-08T21:14:23.650Z,86.00
2023-05-08T21:16:54.077Z,85.80
2023-05-08T21:19:22.657Z,85.90
2023-05-08T21:21:51.045Z,86.00
2023-05-08T21:24:19.437Z,86.00
2023-05-08T21:26:47.642Z,85.70
2023-05-08T21:29:15.930Z,85.50
2023-05-08T21:31:44.292Z,85.20
2023-05-08T21:34:15.139Z,84.90
2023-05-08T21:36:43.404Z,84.90
2023-05-08T21:39:11.582Z,85.20
2023-05-08T21:41:39.854Z,85.10
2023-05-08T21:44:08.132Z,84.80
2023-05-08T21:46:36.426Z,84.40
2023-05-08T21:49:05.100Z,84.50
2023-05-08T21:51:35.103Z,84.80
2023-05-08T21:54:03.385Z,85.10
2023-05-08T21:56:31.614Z,85.40
2023-05-08T21:58:59.839Z,85.50
2023-05-08T22:01:28.144Z,85.60
2023-05-08T22:03:59.323Z,85.90
2023-05-08T22:06:27.646Z,86.60
2023-05-08T22:08:57.216Z,89.60
2023-05-08T22:11:25.902Z,90.20
2023-05-08T22:13:54.083Z,90.70
2023-05-08T22:16:22.370Z,91.30
2023-05-08T22:18:50.642Z,91.40
2023-05-08T22:21:18.834Z,91.50
2023-05-08T22:23:47.078Z,91.60
2023-05-08T22:26:16.650Z,91.70
2023-05-08T22:28:45.093Z,91.70
2023-05-08T22:31:14.400Z,91.70
2023-05-08T22:33:42.635Z,91.70
2023-05-08T22:36:11.539Z,91.70
2023-05-08T22:38:40.581Z,91.70
2023-05-08T22:41:09.175Z,91.50
2023-05-08T22:43:38.984Z,91.40
2023-05-08T22:46:07.729Z,91.40
2023-05-08T22:48:36.192Z,91.20
2023-05-08T22:51:04.896Z,91.20
2023-05-08T22:53:33.126Z,91.00
2023-05-08T22:56:01.326Z,91.10
2023-05-08T22:58:29.577Z,90.90
2023-05-08T23:00:59.712Z,91.00
2023-05-08T23:03:28.193Z,91.00
2023-05-08T23:05:56.496Z,91.00
2023-05-08T23:08:24.769Z,90.90
2023-05-08T23:10:52.943Z,90.70
2023-05-08T23:13:21.156Z,90.60
2023-05-08T23:15:49.428Z,90.50
2023-05-08T23:18:18.993Z,90.60
2023-05-08T23:20:47.187Z,90.60
2023-05-08T23:23:15.358Z,90.70
2023-05-08T23:25:44.570Z,90.70
2023-05-08T23:28:12.758Z,90.70
2023-05-08T23:30:40.953Z,90.70
2023-05-08T23:33:10.047Z,90.50
2023-05-08T23:35:39.655Z,90.50
2023-05-08T23:38:07.858Z,90.30
2023-05-08T23:40:36.090Z,90.50
2023-05-08T23:43:04.715Z,90.50
2023-05-08T23:45:32.997Z,90.60
2023-05-08T23:48:01.359Z,90.70
2023-05-08T23:50:29.688Z,90.80
2023-05-08T23:52:59.230Z,90.70
2023-05-08T23:55:27.499Z,90.70
2023-05-08T23:57:55.665Z,90.80
